ADDS METAR Data INFO
IDs: Format: Raw Decoded Include TAF

Data at: 2209 UTC 24 Jun 2018

KLVM 242153Z AUTO 32012KT 10SM SCT048 SCT065 22/12 A3012 RMK AO2 SLP168 T02170117
KLVM 242053Z AUTO 30009KT 10SM SCT045 BKN050 22/12 A3012 RMK AO2 SLP167 T02220117 56004
KLVM 241953Z AUTO 29008G15KT 10SM BKN050 21/11 A3013 RMK AO2 SLP171 T02060111
KLVM 241853Z AUTO 27012KT 10SM BKN048 19/10 A3014 RMK AO2 SLP175 T01940100
KLVM 241753Z AUTO 27011KT 10SM BKN046 20/11 A3014 RMK AO2 SLP176 T02000106 10200 20094 58001
KLVM 241653Z AUTO 27011KT 10SM BKN042 18/09 A3014 RMK AO2 SLP180 T01780094
KLVM 241553Z AUTO 24013KT 10SM CLR 18/09 A3014 RMK AO2 SLP178 T01780094
KLVM 241453Z AUTO 24013KT 10SM CLR 16/09 A3014 RMK AO2 SLP180 T01610089 51006
KLVM 241353Z AUTO 27010KT 10SM CLR 14/09 A3014 RMK AO2 SLP181 T01440089
KLVM 241253Z AUTO 27012KT 10SM CLR 13/08 A3012 RMK AO2 SLP176 T01280083
KLVM 241153Z AUTO 28007KT 10SM SCT065 09/08 A3012 RMK AO2 SLP184 70008 T00940078 10122 20089 53012
KLVM 241053Z AUTO 27012KT 10SM FEW080 10/08 A3010 RMK AO2 SLP172 T01000078
KLVM 240953Z AUTO 25014G22KT 10SM BKN080 12/07 A3009 RMK AO2 SLP166 T01170072
KLVM 240853Z AUTO 25016KT 10SM FEW060 OVC080 12/07 A3008 RMK AO2 SLP168 T01220072 51003
KLVM 240753Z AUTO 25017KT 10SM FEW080 12/07 A3008 RMK AO2 SLP158 T01170072
KLVM 240653Z AUTO 25014KT 10SM BKN060 OVC080 12/07 A3007 RMK AO2 SLP153 T01220072 402110117
KLVM 240553Z AUTO 25015KT 10SM SCT048 BKN060 OVC090 12/08 A3007 RMK AO2 SLP152 60000 T01220083 10161 20117 51014
KLVM 240453Z AUTO 25012KT 10SM BKN090 12/09 A3007 RMK AO2 SLP153 T01170089
KLVM 240353Z AUTO 25010KT 10SM BKN055 13/09 A3006 RMK AO2 SLP150 T01330089
KLVM 240253Z AUTO 25012KT 10SM OVC075 14/09 A3002 RMK AO2 RAB0155E15 SLP139 P0000 60000 T01390089 53015
KLVM 240153Z AUTO 24011KT 10SM OVC070 14/09 A3001 RMK AO2 SLP135 T01390094
KLVM 240053Z AUTO 25018G24KT 10SM SCT060 BKN100 16/09 A2999 RMK AO2 SLP129 T01560089
KLVM 232353Z AUTO 25018G26KT 10SM BKN060 14/08 A2997 RMK AO2 PK WND 23028/2319 SLP127 60008 T01390083 10211 20117 55002
KLVM 232253Z AUTO 27016G26KT 10SM OVC045 16/08 A2997 RMK AO2 PK WND 26026/2247 SLP123 T01610083
KLVM 232153Z AUTO 24018G26KT 10SM SCT046 16/09 A2997 RMK AO2 PK WND 24026/2148 RAE24 SLP125 P0000 T01560094
KLVM 232053Z AUTO 24010KT 10SM -RA OVC060 12/10 A2998 RMK AO2 WSHFT 2031 RAB13 SLP134 P0008 60008 T01170100 50022
KLVM 232051Z AUTO 24007KT 10SM -RA OVC060 12/10 A2998 RMK AO2 WSHFT 2031 RAB13 P0008
KLVM 232015Z AUTO 33014G20KT 5SM RA SCT042 BKN050 BKN065 13/08 A2997 RMK AO2 WSHFT 1955 LTG DSNT SE RAB13 P0005 T01330083
KLVM 231953Z AUTO 34015G24KT 10SM SCT050 BKN100 18/09 A2994 RMK AO2 PK WND 25027/1903 WSHFT 1926 LTG DSNT S AND SW SLP108 T01830089
KLVM 231946Z AUTO 33016G25KT 10SM SCT050 OVC095 18/09 A2994 RMK AO2 PK WND 25027/1903 WSHFT 1926 T01830089
KLVM 231853Z AUTO 27016G21KT 10SM FEW070 SCT110 20/07 A2991 RMK AO2 SLP092 T02000067
KLVM 231753Z AUTO 28011KT 10SM FEW080 19/07 A2992 RMK AO2 SLP099 T01940072 10206 20122 55009
KLVM 231653Z AUTO 25017KT 10SM FEW055 19/08 A2991 RMK AO2 SLP096 T01940083
KLVM 231553Z AUTO 25013KT 10SM FEW090 18/09 A2993 RMK AO2 SLP101 T01780094
KLVM 231453Z AUTO 30006KT 10SM BKN095 16/11 A2995 RMK AO2 SLP108 T01560111 50007
KLVM 231353Z AUTO 29008KT 10SM FEW070 BKN085 14/12 A2995 RMK AO2 SLP105 T01440117
KLVM 231253Z AUTO 26011KT 10SM OVC075 13/11 A2994 RMK AO2 SLP100 T01330106
KLVM 231153Z AUTO 25010KT 10SM FEW075 12/11 A2992 RMK AO2 SLP097 60028 70028 T01220111 10150 20106 55013
KLVM 231053Z AUTO 26005KT 10SM SCT110 12/11 A2992 RMK AO2 SLP098 T01170111